Triumph — WDC9555 — position and weather

sailwx.info

Track history (hours):
 
Tides and Currents Weather Stations Pressure Air Temp Water Temp Dewpoint Dewpoint Depression Visibility Wind Speed Wind Dir Waves Ship Positions

Triumph

Owner: WESTERN TOWBOAT CO, SEATTLE, WA. More information available from US FCC via Universal Licensing System and Coast Guard Vessel Documentation Center.

Last reported at 2015-Feb-21 14:50 UTC. Time now 2015-Mar-02 03:41 UTC.
Position N 47°39' W 122°22'.
Warning: this ship's position is 8 days out of date.

Length 24 m; draft 3 m.

Type: Tow > 200 m length. MMSI: 367103880.

Date/timePositionNaut miles runAvg speedWind from/ knotsBaromVisibWave heightAir tempDewpointWater temp
2015-Feb-21 14:50N 47°39' W 122°22'0 0.9
2015-Feb-21 14:34N 47°39' W 122°22'0 5.9
2015-Feb-21 14:31N 47°40' W 122°23'3 2.7
2015-Feb-21 13:33N 47°38' W 122°25'0 9.9
2015-Feb-21 13:31N 47°37' W 122°25'2 2.4
2015-Feb-21 12:33N 47°36' W 122°22'0 0.8
2015-Feb-21 12:30N 47°36' W 122°22'7 7.4
2015-Feb-21 11:34N 47°41' W 122°28'1 9.0
2015-Feb-21 11:30N 47°42' W 122°28'8 8.9
2015-Feb-21 10:34N 47°50' W 122°29'1 8.9
2015-Feb-21 10:30N 47°51' W 122°29'9 9.3
2015-Feb-21 09:33N 47°58' W 122°36'10 9.1
2015-Feb-21 08:27N 48°07' W 122°42'8 8.8
2015-Feb-21 07:32N 48°11' W 122°53'9 7.5
2015-Feb-21 06:20N 48°12' W 123°06'6 7.1
2015-Feb-21 05:30N 48°10' W 123°15'6 6.7
2015-Feb-21 04:33N 48°08' W 123°24'1 0.7
2015-Feb-21 03:33N 48°08' W 123°25'0 0.0
2015-Feb-21 02:33N 48°08' W 123°25'0 0.1
2015-Feb-21 01:27N 48°08' W 123°25'0 0.0
2015-Feb-21 00:17N 48°08' W 123°25'0 0.0
2015-Feb-20 23:34N 48°08' W 123°25'0 0.0
2015-Feb-20 22:33N 48°08' W 123°25'0 0.0
2015-Feb-20 21:26N 48°08' W 123°25'0 0.0
2015-Feb-20 20:27N 48°08' W 123°25'0 0.0
2015-Feb-20 19:31N 48°08' W 123°25'0 0.0
2015-Feb-20 18:18N 48°08' W 123°25'0 0.0
2015-Feb-20 17:30N 48°08' W 123°25'0 0.3
2015-Feb-20 16:26N 48°08' W 123°25'1 0.8
2015-Feb-20 15:30N 48°08' W 123°26'0 0.0
2015-Feb-20 10:07N 48°08' W 123°26'0 0.0
2015-Feb-20 08:22N 48°08' W 123°26'0 0.0
2015-Feb-20 07:33N 48°08' W 123°26'0 0.0
2015-Feb-20 06:34N 48°08' W 123°26'0 0.0
2015-Feb-20 05:34N 48°08' W 123°26'0 0.0
2015-Feb-20 04:34N 48°08' W 123°26'0 0.0
2015-Feb-20 03:34N 48°08' W 123°26'0 0.0
2015-Feb-20 02:34N 48°08' W 123°26'0 0.0
2015-Feb-20 01:33N 48°08' W 123°26'0 0.0
2015-Feb-20 00:33N 48°08' W 123°26'0 0.0
2015-Feb-19 23:34N 48°08' W 123°26'1 0.6
2015-Feb-19 22:33N 48°08' W 123°26'0 0.0
2015-Feb-19 21:33N 48°08' W 123°26'0 0.0
2015-Feb-19 20:34N 48°08' W 123°26'0 0.0
2015-Feb-19 19:34N 48°08' W 123°26'0 0.0
2015-Feb-19 18:34N 48°08' W 123°26'0 0.0
2015-Feb-19 17:34N 48°08' W 123°26'0 0.1
2015-Feb-19 16:33N 48°08' W 123°26'1 0.7
2015-Feb-19 15:34N 48°08' W 123°25'8 8.2
2015-Feb-19 14:32N 48°11' W 123°13'9 8.1
2015-Feb-19 13:29N 48°12' W 123°00'15 5.0
2015-Feb-19 10:29N 48°07' W 122°39'4 4.1
2015-Feb-19 09:33N 48°03' W 122°38'6 5.9
2015-Feb-19 08:36N 47°58' W 122°34'0 6.5
2015-Feb-19 08:33N 47°58' W 122°34'0 5.4
2015-Feb-19 08:31N 47°58' W 122°34'7 6.9
2015-Feb-19 07:34N 47°53' W 122°28'0 8.0
2015-Feb-19 07:31N 47°52' W 122°28'5 9.1
2015-Feb-19 07:01N 47°48' W 122°26'4 8.8
2015-Feb-19 06:34N 47°44' W 122°26'8 7.6
2015-Feb-19 05:33N 47°36' W 122°23'2 3.7
2015-Feb-19 05:08N 47°35' W 122°21'0 0.1
2015-Feb-19 04:33N 47°35' W 122°21'0 0.0
2015-Feb-19 04:33N 47°35' W 122°21'1 1.2
2015-Feb-19 03:34N 47°34' W 122°21'0 0.0
2015-Feb-19 03:33N 47°34' W 122°21'0 0.0
2015-Feb-19 02:33N 47°34' W 122°21'0 0.0
2015-Feb-19 02:33N 47°34' W 122°21'0 0.0
2015-Feb-19 01:33N 47°34' W 122°21'0 0.0
2015-Feb-19 01:33N 47°34' W 122°21'0 0.0
2015-Feb-19 00:30N 47°34' W 122°21'0 0.0
2015-Feb-19 00:17N 47°34' W 122°21'0 0.5
2015-Feb-18 23:34N 47°34' W 122°21'0 6.6
2015-Feb-18 23:32N 47°34' W 122°21'6 6.3
2015-Feb-18 22:34N 47°39' W 122°27'6 6.2
2015-Feb-18 21:39N 47°45' W 122°27'1 6.5
2015-Feb-18 21:34N 47°45' W 122°27'0 6.4
2015-Feb-18 21:29N 47°46' W 122°27'6 6.7
2015-Feb-18 20:34N 47°52' W 122°29'0 6.9
2015-Feb-18 20:29N 47°52' W 122°29'6 6.7
2015-Feb-18 19:33N 47°57' W 122°35'7 6.2
2015-Feb-18 18:24N 48°04' W 122°40'4 4.8
2015-Feb-18 17:31N 48°08' W 122°42'4 4.2
2015-Feb-18 16:34N 48°10' W 122°46'5 4.9
2015-Feb-18 15:33N 48°15' W 122°48'7 7.3
2015-Feb-18 14:32N 48°22' W 122°45'7 6.9
2015-Feb-18 13:34N 48°29' W 122°45'6 5.6
2015-Feb-18 12:33N 48°34' W 122°45'3 3.2
2015-Feb-18 11:34N 48°38' W 122°44'4 3.5
2015-Feb-18 10:34N 48°41' W 122°44'5 4.6
2015-Feb-18 09:33N 48°45' W 122°48'7 6.7
2015-Feb-18 08:33N 48°49' W 122°56'7 6.7
2015-Feb-18 07:32N 48°53' W 123°05'7 7.1
2015-Feb-18 06:33N 48°57' W 123°13'7 7.3
2015-Feb-18 05:34N 49°02' W 123°21'7 7.1
2015-Feb-18 04:33N 49°08' W 123°28'8 7.7
2015-Feb-18 03:34N 49°14' W 123°33'10 7.7
2015-Feb-18 02:13N 49°23' W 123°42'5 6.8
2015-Feb-18 01:29N 49°28' W 123°45'0 0.5
2015-Feb-18 00:31N 49°28' W 123°45'0 0.0
2015-Feb-17 23:30N 49°28' W 123°45'2 2.2
2015-Feb-17 22:33N 49°26' W 123°45'1 1.1
2015-Feb-17 21:32N 49°27' W 123°45'6 5.4
2015-Feb-17 20:25N 49°22' W 123°40'7 8.5
2015-Feb-17 19:34N 49°16' W 123°33'17 8.3
2015-Feb-17 17:33N 49°02' W 123°18'8 8.0
2015-Feb-17 16:34N 48°57' W 123°09'8 8.3
2015-Feb-17 15:34N 48°52' W 122°60'0 9.2
2015-Feb-17 15:34N 48°52' W 122°59'1 9.2
2015-Feb-17 15:24N 48°51' W 122°58'8 8.9
2015-Feb-17 14:33N 48°46' W 122°49'8 8.1
2015-Feb-17 13:34N 48°39' W 122°43'1 8.6
2015-Feb-17 13:29N 48°39' W 122°43'8 8.9
2015-Feb-17 12:34N 48°31' W 122°44'22 7.3
2015-Feb-17 09:33N 48°09' W 122°42'4 3.8
2015-Feb-17 08:33N 48°06' W 122°39'6 6.3
2015-Feb-17 07:31N 47°60' W 122°35'2 6.5
2015-Feb-17 07:13N 47°58' W 122°34'1 6.4
2015-Feb-17 06:59N 47°57' W 122°32'3 7.8
2015-Feb-17 06:34N 47°55' W 122°29'8 8.1
2015-Feb-17 05:34N 47°47' W 122°26'0 4.4
2015-Feb-17 05:33N 47°47' W 122°26'8 8.0
2015-Feb-17 04:33N 47°39' W 122°27'0 4.4
2015-Feb-17 04:33N 47°39' W 122°27'7 6.9
2015-Feb-17 03:33N 47°33' W 122°21'0 0.0
2015-Feb-17 03:33N 47°33' W 122°21'7 7.5
2015-Feb-17 02:33N 47°40' W 122°27'0 7.2
2015-Feb-17 02:33N 47°40' W 122°27'3 3.2
2015-Feb-17 01:33N 47°39' W 122°22'0 0.0
2015-Feb-17 01:32N 47°39' W 122°22'  
2015-Feb-11 23:44N 47°39' W 122°22'1 6.7
2015-Feb-11 23:34N 47°40' W 122°24'0 0.5
2015-Feb-11 23:29N 47°40' W 122°24'5 4.9
2015-Feb-11 22:33N 47°36' W 122°22'110.5
2015-Feb-11 22:29N 47°35' W 122°22'0 0.4
2015-Feb-11 21:33N 47°35' W 122°22'0 2.7
2015-Feb-11 21:33N 47°35' W 122°22'5 5.4
2015-Feb-11 20:34N 47°39' W 122°27'0 6.5
2015-Feb-11 20:33N 47°39' W 122°27'6 6.3
2015-Feb-11 19:33N 47°45' W 122°27'2 7.3
2015-Feb-11 19:21N 47°46' W 122°27'6 7.0
2015-Feb-11 18:34N 47°52' W 122°29'0 6.2
2015-Feb-11 18:30N 47°52' W 122°29'6 5.9
2015-Feb-11 17:33N 47°57' W 122°34'6 5.9
2015-Feb-11 16:33N 48°02' W 122°39'7 6.4
2015-Feb-11 15:32N 48°08' W 122°42'  
Track history (hours):
 
Tides and Currents Weather Stations Pressure Air Temp Water Temp Dewpoint Dewpoint Depression Visibility Wind Speed Wind Dir Waves Ship Positions

Triumph

Owner: WESTERN TOWBOAT CO, SEATTLE, WA. More information available from US FCC via Universal Licensing System and Coast Guard Vessel Documentation Center.

Last reported at 2015-Feb-21 14:50 UTC. Time now 2015-Mar-02 03:41 UTC.
Position N 47°39' W 122°22'.
Warning: this ship's position is 8 days out of date.

Length 24 m; draft 3 m.

Type: Tow > 200 m length. MMSI: 367103880.

Date/timePositionNaut miles runAvg speedWind from/ knotsBaromVisibWave heightAir tempDewpointWater temp
2015-Feb-21 14:50N 47°39' W 122°22'0 0.9
2015-Feb-21 14:34N 47°39' W 122°22'0 5.9
2015-Feb-21 14:31N 47°40' W 122°23'3 2.7
2015-Feb-21 13:33N 47°38' W 122°25'0 9.9
2015-Feb-21 13:31N 47°37' W 122°25'2 2.4
2015-Feb-21 12:33N 47°36' W 122°22'0 0.8
2015-Feb-21 12:30N 47°36' W 122°22'7 7.4
2015-Feb-21 11:34N 47°41' W 122°28'1 9.0
2015-Feb-21 11:30N 47°42' W 122°28'8 8.9
2015-Feb-21 10:34N 47°50' W 122°29'1 8.9
2015-Feb-21 10:30N 47°51' W 122°29'9 9.3
2015-Feb-21 09:33N 47°58' W 122°36'10 9.1
2015-Feb-21 08:27N 48°07' W 122°42'8 8.8
2015-Feb-21 07:32N 48°11' W 122°53'9 7.5
2015-Feb-21 06:20N 48°12' W 123°06'6 7.1
2015-Feb-21 05:30N 48°10' W 123°15'6 6.7
2015-Feb-21 04:33N 48°08' W 123°24'1 0.7
2015-Feb-21 03:33N 48°08' W 123°25'0 0.0
2015-Feb-21 02:33N 48°08' W 123°25'0 0.1
2015-Feb-21 01:27N 48°08' W 123°25'0 0.0
2015-Feb-21 00:17N 48°08' W 123°25'0 0.0
2015-Feb-20 23:34N 48°08' W 123°25'0 0.0
2015-Feb-20 22:33N 48°08' W 123°25'0 0.0
2015-Feb-20 21:26N 48°08' W 123°25'0 0.0
2015-Feb-20 20:27N 48°08' W 123°25'0 0.0
2015-Feb-20 19:31N 48°08' W 123°25'0 0.0
2015-Feb-20 18:18N 48°08' W 123°25'0 0.0
2015-Feb-20 17:30N 48°08' W 123°25'0 0.3
2015-Feb-20 16:26N 48°08' W 123°25'1 0.8
2015-Feb-20 15:30N 48°08' W 123°26'0 0.0
2015-Feb-20 10:07N 48°08' W 123°26'0 0.0
2015-Feb-20 08:22N 48°08' W 123°26'0 0.0
2015-Feb-20 07:33N 48°08' W 123°26'0 0.0
2015-Feb-20 06:34N 48°08' W 123°26'0 0.0
2015-Feb-20 05:34N 48°08' W 123°26'0 0.0
2015-Feb-20 04:34N 48°08' W 123°26'0 0.0
2015-Feb-20 03:34N 48°08' W 123°26'0 0.0
2015-Feb-20 02:34N 48°08' W 123°26'0 0.0
2015-Feb-20 01:33N 48°08' W 123°26'0 0.0
2015-Feb-20 00:33N 48°08' W 123°26'0 0.0
2015-Feb-19 23:34N 48°08' W 123°26'1 0.6
2015-Feb-19 22:33N 48°08' W 123°26'0 0.0
2015-Feb-19 21:33N 48°08' W 123°26'0 0.0
2015-Feb-19 20:34N 48°08' W 123°26'0 0.0
2015-Feb-19 19:34N 48°08' W 123°26'0 0.0
2015-Feb-19 18:34N 48°08' W 123°26'0 0.0
2015-Feb-19 17:34N 48°08' W 123°26'0 0.1
2015-Feb-19 16:33N 48°08' W 123°26'1 0.7
2015-Feb-19 15:34N 48°08' W 123°25'8 8.2
2015-Feb-19 14:32N 48°11' W 123°13'9 8.1
2015-Feb-19 13:29N 48°12' W 123°00'15 5.0
2015-Feb-19 10:29N 48°07' W 122°39'4 4.1
2015-Feb-19 09:33N 48°03' W 122°38'6 5.9
2015-Feb-19 08:36N 47°58' W 122°34'0 6.5
2015-Feb-19 08:33N 47°58' W 122°34'0 5.4
2015-Feb-19 08:31N 47°58' W 122°34'7 6.9
2015-Feb-19 07:34N 47°53' W 122°28'0 8.0
2015-Feb-19 07:31N 47°52' W 122°28'5 9.1
2015-Feb-19 07:01N 47°48' W 122°26'4 8.8
2015-Feb-19 06:34N 47°44' W 122°26'8 7.6
2015-Feb-19 05:33N 47°36' W 122°23'2 3.7
2015-Feb-19 05:08N 47°35' W 122°21'0 0.1
2015-Feb-19 04:33N 47°35' W 122°21'0 0.0
2015-Feb-19 04:33N 47°35' W 122°21'1 1.2
2015-Feb-19 03:34N 47°34' W 122°21'0 0.0
2015-Feb-19 03:33N 47°34' W 122°21'0 0.0
2015-Feb-19 02:33N 47°34' W 122°21'0 0.0
2015-Feb-19 02:33N 47°34' W 122°21'0 0.0
2015-Feb-19 01:33N 47°34' W 122°21'0 0.0
2015-Feb-19 01:33N 47°34' W 122°21'0 0.0
2015-Feb-19 00:30N 47°34' W 122°21'0 0.0
2015-Feb-19 00:17N 47°34' W 122°21'0 0.5
2015-Feb-18 23:34N 47°34' W 122°21'0 6.6
2015-Feb-18 23:32N 47°34' W 122°21'6 6.3
2015-Feb-18 22:34N 47°39' W 122°27'6 6.2
2015-Feb-18 21:39N 47°45' W 122°27'1 6.5
2015-Feb-18 21:34N 47°45' W 122°27'0 6.4
2015-Feb-18 21:29N 47°46' W 122°27'6 6.7
2015-Feb-18 20:34N 47°52' W 122°29'0 6.9
2015-Feb-18 20:29N 47°52' W 122°29'6 6.7
2015-Feb-18 19:33N 47°57' W 122°35'7 6.2
2015-Feb-18 18:24N 48°04' W 122°40'4 4.8
2015-Feb-18 17:31N 48°08' W 122°42'4 4.2
2015-Feb-18 16:34N 48°10' W 122°46'5 4.9
2015-Feb-18 15:33N 48°15' W 122°48'7 7.3
2015-Feb-18 14:32N 48°22' W 122°45'7 6.9
2015-Feb-18 13:34N 48°29' W 122°45'6 5.6
2015-Feb-18 12:33N 48°34' W 122°45'3 3.2
2015-Feb-18 11:34N 48°38' W 122°44'4 3.5
2015-Feb-18 10:34N 48°41' W 122°44'5 4.6
2015-Feb-18 09:33N 48°45' W 122°48'7 6.7
2015-Feb-18 08:33N 48°49' W 122°56'7 6.7
2015-Feb-18 07:32N 48°53' W 123°05'7 7.1
2015-Feb-18 06:33N 48°57' W 123°13'7 7.3
2015-Feb-18 05:34N 49°02' W 123°21'7 7.1
2015-Feb-18 04:33N 49°08' W 123°28'8 7.7
2015-Feb-18 03:34N 49°14' W 123°33'10 7.7
2015-Feb-18 02:13N 49°23' W 123°42'5 6.8
2015-Feb-18 01:29N 49°28' W 123°45'0 0.5
2015-Feb-18 00:31N 49°28' W 123°45'0 0.0
2015-Feb-17 23:30N 49°28' W 123°45'2 2.2
2015-Feb-17 22:33N 49°26' W 123°45'1 1.1
2015-Feb-17 21:32N 49°27' W 123°45'6 5.4
2015-Feb-17 20:25N 49°22' W 123°40'7 8.5
2015-Feb-17 19:34N 49°16' W 123°33'17 8.3
2015-Feb-17 17:33N 49°02' W 123°18'8 8.0
2015-Feb-17 16:34N 48°57' W 123°09'8 8.3
2015-Feb-17 15:34N 48°52' W 122°60'0 9.2
2015-Feb-17 15:34N 48°52' W 122°59'1 9.2
2015-Feb-17 15:24N 48°51' W 122°58'8 8.9
2015-Feb-17 14:33N 48°46' W 122°49'8 8.1
2015-Feb-17 13:34N 48°39' W 122°43'1 8.6
2015-Feb-17 13:29N 48°39' W 122°43'8 8.9
2015-Feb-17 12:34N 48°31' W 122°44'22 7.3
2015-Feb-17 09:33N 48°09' W 122°42'4 3.8
2015-Feb-17 08:33N 48°06' W 122°39'6 6.3
2015-Feb-17 07:31N 47°60' W 122°35'2 6.5
2015-Feb-17 07:13N 47°58' W 122°34'1 6.4
2015-Feb-17 06:59N 47°57' W 122°32'3 7.8
2015-Feb-17 06:34N 47°55' W 122°29'8 8.1
2015-Feb-17 05:34N 47°47' W 122°26'0 4.4
2015-Feb-17 05:33N 47°47' W 122°26'8 8.0
2015-Feb-17 04:33N 47°39' W 122°27'0 4.4
2015-Feb-17 04:33N 47°39' W 122°27'7 6.9
2015-Feb-17 03:33N 47°33' W 122°21'0 0.0
2015-Feb-17 03:33N 47°33' W 122°21'7 7.5
2015-Feb-17 02:33N 47°40' W 122°27'0 7.2
2015-Feb-17 02:33N 47°40' W 122°27'3 3.2
2015-Feb-17 01:33N 47°39' W 122°22'0 0.0
2015-Feb-17 01:32N 47°39' W 122°22'  
2015-Feb-11 23:44N 47°39' W 122°22'1 6.7
2015-Feb-11 23:34N 47°40' W 122°24'0 0.5
2015-Feb-11 23:29N 47°40' W 122°24'5 4.9
2015-Feb-11 22:33N 47°36' W 122°22'110.5
2015-Feb-11 22:29N 47°35' W 122°22'0 0.4
2015-Feb-11 21:33N 47°35' W 122°22'0 2.7
2015-Feb-11 21:33N 47°35' W 122°22'5 5.4
2015-Feb-11 20:34N 47°39' W 122°27'0 6.5
2015-Feb-11 20:33N 47°39' W 122°27'6 6.3
2015-Feb-11 19:33N 47°45' W 122°27'2 7.3
2015-Feb-11 19:21N 47°46' W 122°27'6 7.0
2015-Feb-11 18:34N 47°52' W 122°29'0 6.2
2015-Feb-11 18:30N 47°52' W 122°29'6 5.9
2015-Feb-11 17:33N 47°57' W 122°34'6 5.9
2015-Feb-11 16:33N 48°02' W 122°39'7 6.4
2015-Feb-11 15:32N 48°08' W 122°42'  

Dump ship's entire track history